createdAt,value
2023-01-13T00:00:47.974Z,0.60
2023-01-13T00:03:28.621Z,0.60
2023-01-13T00:06:02.037Z,0.40
2023-01-13T00:08:32.446Z,0.77
2023-01-13T00:11:02.960Z,0.50
2023-01-13T00:13:35.461Z,0.60
2023-01-13T00:16:08.128Z,0.50
2023-01-13T00:18:40.844Z,0.53
2023-01-13T00:21:14.909Z,0.40
2023-01-13T00:23:46.123Z,0.50
2023-01-13T00:26:18.399Z,0.60
2023-01-13T00:28:48.496Z,0.83
2023-01-13T00:31:21.454Z,0.40
2023-01-13T00:33:54.203Z,0.60
2023-01-13T00:36:24.739Z,0.60
2023-01-13T00:38:54.861Z,0.60
2023-01-13T00:41:27.609Z,0.53
2023-01-13T00:43:57.850Z,0.50
2023-01-13T00:46:28.303Z,0.50
2023-01-13T00:49:00.949Z,0.60
2023-01-13T00:51:31.295Z,0.80
2023-01-13T00:54:01.363Z,0.60
2023-01-13T00:56:40.292Z,0.70
2023-01-13T00:59:14.795Z,0.60
2023-01-13T01:01:45.671Z,0.50
2023-01-13T01:04:19.726Z,0.60
2023-01-13T01:06:50.948Z,0.40
2023-01-13T01:09:21.107Z,0.70
2023-01-13T01:11:51.719Z,0.67
2023-01-13T01:14:21.931Z,0.60
2023-01-13T01:16:52.277Z,0.60
2023-01-13T01:19:24.981Z,0.70
2023-01-13T01:21:55.707Z,0.30
2023-01-13T01:24:26.636Z,0.40
2023-01-13T01:27:13.421Z,0.40
2023-01-13T01:29:43.983Z,0.40
2023-01-13T01:32:16.294Z,0.60
2023-01-13T01:34:49.646Z,0.50
2023-01-13T01:37:20.318Z,0.80
2023-01-13T01:39:50.637Z,0.90
2023-01-13T01:42:34.429Z,0.30
2023-01-13T01:45:13.495Z,0.60
2023-01-13T01:47:45.066Z,0.87
2023-01-13T01:50:20.000Z,0.40
2023-01-13T01:52:59.528Z,0.57
2023-01-13T01:55:34.812Z,0.30
2023-01-13T01:58:10.820Z,0.50
2023-01-13T02:00:41.573Z,0.40
2023-01-13T02:03:14.272Z,0.50
2023-01-13T02:05:47.229Z,0.40
2023-01-13T02:08:18.179Z,0.40
2023-01-13T02:10:53.323Z,0.50
2023-01-13T02:13:25.357Z,0.40
2023-01-13T02:16:02.688Z,0.40
2023-01-13T02:18:56.701Z,0.30
2023-01-13T02:22:07.873Z,0.43
2023-01-13T02:25:07.869Z,0.40
2023-01-13T02:27:56.423Z,0.50
2023-01-13T02:30:55.352Z,0.50
2023-01-13T02:33:45.054Z,0.47
2023-01-13T02:36:23.767Z,0.30
2023-01-13T02:38:59.490Z,0.40
2023-01-13T02:41:47.405Z,0.40
2023-01-13T02:44:21.349Z,0.50
2023-01-13T02:47:00.520Z,0.33
2023-01-13T02:49:37.062Z,0.33
2023-01-13T02:52:13.332Z,0.40
2023-01-13T02:54:46.969Z,0.60
2023-01-13T02:57:20.082Z,0.30
2023-01-13T02:59:51.024Z,0.60
2023-01-13T03:02:26.241Z,0.47
2023-01-13T03:04:58.438Z,0.30
2023-01-13T03:08:10.599Z,0.40
2023-01-13T03:10:53.273Z,0.40
2023-01-13T03:13:50.376Z,0.40
2023-01-13T03:16:31.040Z,0.40
2023-01-13T03:19:24.832Z,0.30
2023-01-13T03:21:58.728Z,0.40
2023-01-13T03:24:33.527Z,0.50
2023-01-13T03:27:08.296Z,0.40
2023-01-13T03:29:46.218Z,0.57
2023-01-13T03:32:23.584Z,0.30
2023-01-13T03:35:08.352Z,0.50
2023-01-13T03:38:19.587Z,0.33
2023-01-13T03:48:20.338Z,0.37
2023-01-13T03:51:23.150Z,0.40
2023-01-13T03:54:02.763Z,0.40
2023-01-13T03:56:36.885Z,0.60
2023-01-13T03:59:10.815Z,0.30
2023-01-13T04:01:48.602Z,0.40
2023-01-13T04:04:24.038Z,0.50
2023-01-13T04:07:00.924Z,0.40
2023-01-13T04:09:36.204Z,0.50
2023-01-13T04:12:12.695Z,0.50
2023-01-13T04:14:44.338Z,0.30
2023-01-13T04:17:17.611Z,0.40
2023-01-13T04:19:47.894Z,0.30
2023-01-13T04:22:21.133Z,0.40
2023-01-13T04:24:51.431Z,0.50
2023-01-13T04:27:22.028Z,0.80
2023-01-13T04:29:52.291Z,0.40
2023-01-13T04:32:22.879Z,0.50
2023-01-13T04:34:53.151Z,0.30
2023-01-13T04:37:26.370Z,0.40
2023-01-13T04:39:56.789Z,0.30
2023-01-13T04:42:27.421Z,0.30
2023-01-13T04:44:57.655Z,0.50
2023-01-13T04:47:28.274Z,0.40
2023-01-13T04:49:58.519Z,0.40
2023-01-13T04:52:31.734Z,0.97
2023-01-13T04:55:01.985Z,0.47
2023-01-13T04:57:33.348Z,0.40
2023-01-13T05:00:03.793Z,0.40
2023-01-13T05:02:34.677Z,0.40
2023-01-13T05:05:04.792Z,0.43
2023-01-13T05:07:37.919Z,0.40
2023-01-13T05:10:09.006Z,0.30
2023-01-13T05:12:52.299Z,0.37
2023-01-13T05:15:34.795Z,0.50
2023-01-13T05:18:05.775Z,0.60
2023-01-13T05:20:35.725Z,0.60
2023-01-13T05:23:21.853Z,0.50
2023-01-13T05:25:52.702Z,0.50
2023-01-13T05:28:23.041Z,0.40
2023-01-13T05:30:53.101Z,0.47
2023-01-13T05:33:23.480Z,0.40
2023-01-13T05:35:53.669Z,0.50
2023-01-13T05:38:26.565Z,0.40
2023-01-13T05:41:08.942Z,0.40
2023-01-13T05:43:39.380Z,0.40
2023-01-13T05:46:12.034Z,0.50
2023-01-13T05:48:44.448Z,0.50
2023-01-13T05:51:15.668Z,0.40
2023-01-13T05:53:48.644Z,0.40
2023-01-13T05:56:19.244Z,0.40
2023-01-13T05:58:49.576Z,0.40
2023-01-13T06:01:22.992Z,0.60
2023-01-13T06:03:56.664Z,1.57
2023-01-13T06:06:27.739Z,0.50
2023-01-13T06:09:02.978Z,0.40
2023-01-13T06:11:32.995Z,0.60
2023-01-13T06:14:03.281Z,0.30
2023-01-13T06:16:33.352Z,0.30
2023-01-13T06:19:03.717Z,0.30
2023-01-13T06:21:33.716Z,0.40
2023-01-13T06:24:07.354Z,0.47
2023-01-13T06:26:40.867Z,0.40
2023-01-13T06:29:14.050Z,0.40
2023-01-13T06:31:44.160Z,0.40
2023-01-13T06:34:16.872Z,0.40
2023-01-13T06:36:51.767Z,0.40
2023-01-13T06:39:31.070Z,0.57
2023-01-13T06:42:14.721Z,0.40
2023-01-13T06:44:45.487Z,0.40
2023-01-13T06:47:15.608Z,0.40
2023-01-13T06:49:45.963Z,0.60
2023-01-13T06:52:15.957Z,0.50
2023-01-13T06:54:48.824Z,0.50
2023-01-13T06:57:18.764Z,0.50
2023-01-13T06:59:50.599Z,0.50
2023-01-13T07:02:20.846Z,0.37
2023-01-13T07:04:51.326Z,0.40
2023-01-13T07:07:21.363Z,0.57
2023-01-13T07:09:54.384Z,0.60
2023-01-13T07:12:24.346Z,0.47
2023-01-13T07:15:07.107Z,0.40
2023-01-13T07:17:37.173Z,0.50
2023-01-13T07:20:08.706Z,0.60
2023-01-13T07:22:38.648Z,0.57
2023-01-13T07:25:13.140Z,0.70
2023-01-13T07:27:43.154Z,0.53
2023-01-13T07:30:15.041Z,0.40
2023-01-13T07:32:45.079Z,0.40
2023-01-13T07:35:15.329Z,0.40
2023-01-13T07:37:45.267Z,0.50
2023-01-13T07:40:18.307Z,0.47
2023-01-13T07:43:00.730Z,0.40
2023-01-13T07:45:36.259Z,0.40
2023-01-13T07:48:06.644Z,0.30
2023-01-13T07:50:37.211Z,0.40
2023-01-13T07:53:07.559Z,0.60
2023-01-13T07:55:44.174Z,0.50
2023-01-13T07:58:14.474Z,0.40
2023-01-13T08:00:44.919Z,0.40
2023-01-13T08:03:14.880Z,0.47
2023-01-13T08:05:45.212Z,0.40
2023-01-13T08:08:15.439Z,0.47
2023-01-13T08:10:48.433Z,0.30
2023-01-13T08:13:21.251Z,0.40
2023-01-13T08:15:53.256Z,0.40
2023-01-13T08:18:24.762Z,0.40
2023-01-13T08:20:55.890Z,0.40
2023-01-13T08:23:26.254Z,0.30
2023-01-13T08:26:02.786Z,0.57
2023-01-13T08:28:33.831Z,0.30
2023-01-13T08:31:06.206Z,0.30
2023-01-13T08:33:36.492Z,0.40
2023-01-13T08:36:07.951Z,0.50
2023-01-13T08:38:38.833Z,0.30
2023-01-13T08:41:37.904Z,0.33
2023-01-13T08:44:09.483Z,0.50
2023-01-13T08:46:39.900Z,0.50
2023-01-13T08:49:09.824Z,0.60
2023-01-13T08:51:40.074Z,0.60
2023-01-13T08:54:10.045Z,0.50
2023-01-13T08:56:43.779Z,0.43
2023-01-13T08:59:15.800Z,0.40
2023-01-13T09:01:47.104Z,0.50
2023-01-13T09:04:20.215Z,0.60
2023-01-13T09:06:51.861Z,0.63
2023-01-13T09:09:22.220Z,0.50
2023-01-13T09:12:07.886Z,0.63
2023-01-13T09:14:40.771Z,0.57
2023-01-13T09:17:11.383Z,0.70
2023-01-13T09:19:41.884Z,0.60
2023-01-13T09:22:16.694Z,0.57
2023-01-13T09:24:47.395Z,0.50
2023-01-13T09:27:20.826Z,0.73
2023-01-13T09:29:52.127Z,1.00
2023-01-13T09:32:22.880Z,0.77
2023-01-13T09:35:03.075Z,0.60
2023-01-13T09:37:36.855Z,0.80
2023-01-13T09:40:09.998Z,0.40
2023-01-13T09:43:02.019Z,0.40
2023-01-13T09:45:37.725Z,0.50
2023-01-13T09:48:15.897Z,0.60
2023-01-13T09:50:59.624Z,0.77
2023-01-13T09:53:32.948Z,0.40
2023-01-13T09:56:03.737Z,0.70
2023-01-13T09:58:37.160Z,0.63
2023-01-13T10:01:17.955Z,0.40
2023-01-13T10:03:49.394Z,0.50
2023-01-13T10:06:24.015Z,0.90
2023-01-13T10:08:55.984Z,0.60
2023-01-13T10:11:40.133Z,0.70
2023-01-13T10:14:21.250Z,0.63
2023-01-13T10:16:55.820Z,0.40
2023-01-13T10:19:31.331Z,0.70
2023-01-13T10:22:24.880Z,0.30
2023-01-13T10:25:10.570Z,0.80
2023-01-13T10:27:46.735Z,0.77
2023-01-13T10:30:27.552Z,0.43
2023-01-13T10:32:59.640Z,0.70
2023-01-13T10:35:59.540Z,0.43
2023-01-13T10:38:33.089Z,0.50
2023-01-13T10:41:05.049Z,0.60
2023-01-13T10:43:36.904Z,1.00
2023-01-13T10:46:13.839Z,0.70
2023-01-13T10:48:46.169Z,0.90
2023-01-13T10:51:26.026Z,0.50
2023-01-13T10:54:01.798Z,0.30
2023-01-13T10:56:34.859Z,0.60
2023-01-13T10:59:24.051Z,0.70
2023-01-13T11:02:26.822Z,0.47
2023-01-13T11:05:05.605Z,0.80
2023-01-13T11:07:38.763Z,0.33
2023-01-13T11:10:22.815Z,0.70
2023-01-13T11:13:02.234Z,0.50
2023-01-13T11:15:42.169Z,0.60
2023-01-13T11:18:22.537Z,0.50
2023-01-13T11:20:55.876Z,0.70
2023-01-13T11:23:31.267Z,0.70
2023-01-13T11:26:06.958Z,0.50
2023-01-13T11:28:44.930Z,0.47
2023-01-13T11:31:24.561Z,0.50
2023-01-13T11:34:02.677Z,0.40
2023-01-13T11:36:41.733Z,0.33
2023-01-13T11:39:24.271Z,0.50
2023-01-13T11:42:12.259Z,0.80
2023-01-13T11:44:48.894Z,1.00
2023-01-13T11:47:23.489Z,0.53
2023-01-13T11:49:57.030Z,0.93
2023-01-13T11:52:35.655Z,0.70
2023-01-13T11:55:22.683Z,1.10
2023-01-13T11:58:12.913Z,0.53
2023-01-13T12:01:11.008Z,0.77
2023-01-13T12:03:44.730Z,1.00
2023-01-13T12:06:29.048Z,0.80
2023-01-13T12:09:25.051Z,0.70
2023-01-13T12:12:18.692Z,1.03
2023-01-13T12:15:07.733Z,0.50
2023-01-13T12:17:48.496Z,0.70
2023-01-13T12:20:36.311Z,0.80
2023-01-13T12:23:28.378Z,0.90
2023-01-13T12:26:04.737Z,0.90
2023-01-13T12:28:51.786Z,0.70
2023-01-13T12:31:27.828Z,0.93
2023-01-13T12:34:25.795Z,1.43
2023-01-13T12:37:04.880Z,1.03
2023-01-13T12:39:48.314Z,0.83
2023-01-13T12:42:35.290Z,0.63
2023-01-13T12:45:26.964Z,1.20
2023-01-13T12:47:58.057Z,0.87
2023-01-13T12:50:50.555Z,1.10
2023-01-13T12:54:03.457Z,0.90
2023-01-13T12:56:42.411Z,0.60
2023-01-13T12:59:49.025Z,1.03
2023-01-13T13:02:56.362Z,0.70
2023-01-13T13:05:47.934Z,1.00
2023-01-13T13:08:34.926Z,1.10
2023-01-13T13:11:53.405Z,0.80
2023-01-13T13:14:53.853Z,0.73
2023-01-13T13:17:45.389Z,0.90
2023-01-13T13:20:45.772Z,0.60
2023-01-13T13:23:44.383Z,2.60
2023-01-13T13:26:21.292Z,0.60
2023-01-13T13:29:04.257Z,0.90
2023-01-13T13:31:47.998Z,1.03
2023-01-13T13:35:11.475Z,1.13
2023-01-13T13:38:06.328Z,0.90
2023-01-13T13:40:54.966Z,0.90
2023-01-13T13:44:13.911Z,1.00
2023-01-13T13:47:36.547Z,1.10
2023-01-13T13:50:34.637Z,1.10
2023-01-13T13:53:09.577Z,0.80
2023-01-13T13:55:40.002Z,1.10
2023-01-13T13:58:20.211Z,1.20
2023-01-13T14:00:51.975Z,0.67
2023-01-13T14:03:26.845Z,1.23
2023-01-13T14:06:02.639Z,1.10
2023-01-13T14:08:36.237Z,0.80
2023-01-13T14:11:28.171Z,1.00
2023-01-13T14:14:06.471Z,0.90
2023-01-13T14:16:40.344Z,1.00
2023-01-13T14:19:29.017Z,0.90
2023-01-13T14:22:04.181Z,1.10
2023-01-13T14:24:35.059Z,0.60
2023-01-13T14:27:13.375Z,0.90
2023-01-13T14:29:43.779Z,0.70
2023-01-13T14:32:20.048Z,1.00
2023-01-13T14:34:50.415Z,1.10
2023-01-13T14:37:38.123Z,1.10
2023-01-13T14:40:09.005Z,0.87
2023-01-13T14:42:46.667Z,0.77
2023-01-13T14:45:29.435Z,0.77
2023-01-13T14:48:11.939Z,1.53
2023-01-13T14:50:42.683Z,1.00
2023-01-13T14:53:37.825Z,1.30
2023-01-13T14:56:55.088Z,1.00
2023-01-13T14:59:45.779Z,1.83
2023-01-13T15:02:41.433Z,1.37
2023-01-13T15:05:51.304Z,0.90
2023-01-13T15:08:40.074Z,3.20
2023-01-13T15:11:21.859Z,1.10
2023-01-13T15:14:01.222Z,0.60
2023-01-13T15:16:34.963Z,0.87
2023-01-13T15:19:05.642Z,0.70
2023-01-13T15:21:37.086Z,1.00
2023-01-13T15:24:10.125Z,1.13
2023-01-13T15:26:40.581Z,0.83
2023-01-13T15:29:17.635Z,1.50
2023-01-13T15:31:47.977Z,1.20
2023-01-13T15:34:17.923Z,1.13
2023-01-13T15:36:48.229Z,1.17
2023-01-13T15:39:20.841Z,0.90
2023-01-13T15:42:06.586Z,0.63
2023-01-13T15:44:50.018Z,1.30
2023-01-13T15:47:25.706Z,1.37
2023-01-13T15:49:56.913Z,1.30
2023-01-13T15:52:30.759Z,1.60
2023-01-13T15:55:05.215Z,1.20
2023-01-13T15:57:41.465Z,1.40
2023-01-13T16:00:17.701Z,1.10
2023-01-13T16:02:49.603Z,1.03
2023-01-13T16:05:20.183Z,1.17
2023-01-13T16:10:48.120Z,1.37
2023-01-13T16:13:28.384Z,1.27
2023-01-13T16:16:01.292Z,1.30
2023-01-13T16:18:31.664Z,1.20
2023-01-13T16:21:01.668Z,0.67
2023-01-13T16:23:34.969Z,1.20
2023-01-13T16:26:10.796Z,1.00
2023-01-13T16:28:41.507Z,1.20
2023-01-13T16:31:22.616Z,2.10
2023-01-13T16:33:52.998Z,1.13
2023-01-13T16:36:24.184Z,1.00
2023-01-13T16:38:55.412Z,1.17
2023-01-13T16:41:27.963Z,1.10
2023-01-13T16:44:06.052Z,0.97
2023-01-13T16:46:47.499Z,1.00
2023-01-13T16:49:20.719Z,0.67
2023-01-13T16:51:50.930Z,0.80
2023-01-13T16:54:21.303Z,1.10
2023-01-13T16:56:53.934Z,0.97
2023-01-13T16:59:24.513Z,1.03
2023-01-13T17:01:57.191Z,1.00
2023-01-13T17:04:30.182Z,1.20
2023-01-13T17:07:03.326Z,1.10
2023-01-13T17:09:33.988Z,1.83
2023-01-13T17:12:10.003Z,1.20
2023-01-13T17:14:43.781Z,1.00
2023-01-13T17:17:26.023Z,1.00
2023-01-13T17:19:57.325Z,1.00
2023-01-13T17:22:27.267Z,1.43
2023-01-13T17:24:57.647Z,1.13
2023-01-13T17:27:30.509Z,1.10
2023-01-13T17:30:01.018Z,1.50
2023-01-13T17:32:31.118Z,1.57
2023-01-13T17:35:02.639Z,0.93
2023-01-13T17:37:35.228Z,0.97
2023-01-13T17:40:10.286Z,1.43
2023-01-13T17:42:42.875Z,0.70
2023-01-13T17:45:14.344Z,1.03
2023-01-13T17:47:47.266Z,1.27
2023-01-13T17:50:19.008Z,0.67
2023-01-13T17:52:50.254Z,1.30
2023-01-13T17:55:22.456Z,1.33
2023-01-13T17:57:55.091Z,1.10
2023-01-13T18:00:25.678Z,1.23
2023-01-13T18:02:55.873Z,1.40
2023-01-13T18:05:26.408Z,1.23
2023-01-13T18:07:56.559Z,1.10
2023-01-13T18:10:26.850Z,0.90
2023-01-13T18:12:59.711Z,1.03
2023-01-13T18:15:30.072Z,0.90
2023-01-13T18:18:00.401Z,1.37
2023-01-13T18:20:43.302Z,1.53
2023-01-13T18:23:32.021Z,1.90
2023-01-13T18:26:14.927Z,1.30
2023-01-13T18:28:47.788Z,1.50
2023-01-13T18:31:21.104Z,1.20
2023-01-13T18:33:51.351Z,1.20
2023-01-13T18:36:22.079Z,1.50
2023-01-13T18:38:53.467Z,1.50
2023-01-13T18:41:36.679Z,1.20
2023-01-13T18:44:09.588Z,1.10
2023-01-13T18:46:40.123Z,0.60
2023-01-13T18:49:10.336Z,2.20
2023-01-13T18:51:41.559Z,1.10
2023-01-13T18:54:12.313Z,1.77
2023-01-13T18:56:43.061Z,1.47
2023-01-13T18:59:15.881Z,1.60
2023-01-13T19:01:46.850Z,1.50
2023-01-13T19:04:19.150Z,1.27
2023-01-13T19:06:51.759Z,1.70
2023-01-13T19:09:26.494Z,0.73
2023-01-13T19:12:01.310Z,1.17
2023-01-13T19:14:37.852Z,1.60
2023-01-13T19:17:10.942Z,1.20
2023-01-13T19:19:43.328Z,1.60
2023-01-13T19:22:19.747Z,1.80
2023-01-13T19:24:53.353Z,1.13
2023-01-13T19:27:27.521Z,0.80
2023-01-13T19:30:00.847Z,1.23
2023-01-13T19:32:36.212Z,1.70
2023-01-13T19:35:07.663Z,0.83
2023-01-13T19:37:40.592Z,1.30
2023-01-13T19:40:13.906Z,1.50
2023-01-13T19:42:58.534Z,1.47
2023-01-13T19:45:32.451Z,1.30
2023-01-13T19:48:05.563Z,1.50
2023-01-13T19:50:39.954Z,1.00
2023-01-13T19:53:15.764Z,1.30
2023-01-13T19:55:48.572Z,1.30
2023-01-13T19:58:20.107Z,1.63
2023-01-13T20:00:57.810Z,1.23
2023-01-13T20:03:35.439Z,1.00
2023-01-13T20:06:09.931Z,1.20
2023-01-13T20:08:40.764Z,1.47
2023-01-13T20:11:31.067Z,1.27
2023-01-13T20:14:02.325Z,1.20
2023-01-13T20:16:35.770Z,1.20
2023-01-13T20:19:06.187Z,1.17
2023-01-13T20:21:37.821Z,0.60
2023-01-13T20:24:11.386Z,1.50
2023-01-13T20:26:41.299Z,1.50
2023-01-13T20:29:11.625Z,1.90
2023-01-13T20:31:44.289Z,0.97
2023-01-13T20:34:14.774Z,1.60
2023-01-13T20:36:44.663Z,0.90
2023-01-13T20:39:17.818Z,1.43
2023-01-13T20:42:00.481Z,1.07
2023-01-13T20:44:31.115Z,1.93
2023-01-13T20:47:03.729Z,1.70
2023-01-13T20:49:35.335Z,1.30
2023-01-13T20:52:09.372Z,1.17
2023-01-13T20:54:39.763Z,1.50
2023-01-13T20:57:12.329Z,1.17
2023-01-13T20:59:43.340Z,1.07
2023-01-13T21:02:18.124Z,1.33
2023-01-13T21:04:48.895Z,1.17
2023-01-13T21:07:22.670Z,1.30
2023-01-13T21:10:14.134Z,0.80
2023-01-13T21:12:56.907Z,1.27
2023-01-13T21:15:28.332Z,0.67
2023-01-13T21:18:13.570Z,1.03
2023-01-13T21:20:44.433Z,0.73
2023-01-13T21:23:15.028Z,1.20
2023-01-13T21:25:45.639Z,1.43
2023-01-13T21:28:17.031Z,1.10
2023-01-13T21:30:47.916Z,1.40
2023-01-13T21:33:21.653Z,1.03
2023-01-13T21:35:52.292Z,1.40
2023-01-13T21:38:22.579Z,2.10
2023-01-13T21:40:59.744Z,1.20
2023-01-13T21:43:42.427Z,1.40
2023-01-13T21:46:27.471Z,1.47
2023-01-13T21:49:00.102Z,1.37
2023-01-13T21:51:31.045Z,1.20
2023-01-13T21:54:01.516Z,1.40
2023-01-13T21:56:34.912Z,1.00
2023-01-13T21:59:05.011Z,1.20
2023-01-13T22:01:35.440Z,1.30
2023-01-13T22:04:15.201Z,1.13
2023-01-13T22:06:45.499Z,1.37
2023-01-13T22:09:15.475Z,1.73
2023-01-13T22:11:45.776Z,1.57
2023-01-13T22:14:15.776Z,1.50
2023-01-13T22:16:49.639Z,1.57
2023-01-13T22:19:22.274Z,0.80
2023-01-13T22:21:52.775Z,0.97
2023-01-13T22:24:25.229Z,1.10
2023-01-13T22:26:55.495Z,0.90
2023-01-13T22:29:25.552Z,2.30
2023-01-13T22:31:55.880Z,0.80
2023-01-13T22:34:28.423Z,0.70
2023-01-13T22:36:58.706Z,1.13
2023-01-13T22:39:29.154Z,0.90
2023-01-13T22:41:59.566Z,1.97
2023-01-13T22:44:29.748Z,0.63
2023-01-13T22:47:12.942Z,1.33
2023-01-13T22:49:47.753Z,1.00
2023-01-13T22:52:18.386Z,1.13
2023-01-13T22:54:48.470Z,1.10
2023-01-13T22:57:18.924Z,1.30
2023-01-13T22:59:48.870Z,1.10
2023-01-13T23:02:19.494Z,1.57
2023-01-13T23:04:52.921Z,0.90
2023-01-13T23:07:26.285Z,1.60
2023-01-13T23:09:56.269Z,1.13
2023-01-13T23:12:26.810Z,1.00
2023-01-13T23:14:56.829Z,0.93
2023-01-13T23:17:27.261Z,1.10
2023-01-13T23:19:59.738Z,1.20
2023-01-13T23:22:30.508Z,1.10
2023-01-13T23:25:01.195Z,1.07
2023-01-13T23:27:31.651Z,1.60
2023-01-13T23:30:01.605Z,1.03
2023-01-13T23:32:31.997Z,1.00
2023-01-13T23:35:04.690Z,1.30
2023-01-13T23:37:35.127Z,1.80
2023-01-13T23:40:05.388Z,0.97
2023-01-13T23:42:36.004Z,1.20
2023-01-13T23:45:07.080Z,1.30
2023-01-13T23:47:37.691Z,1.30
2023-01-13T23:50:12.071Z,1.07
2023-01-13T23:52:42.701Z,1.50
2023-01-13T23:55:13.086Z,1.30
2023-01-13T23:57:43.703Z,1.00
